Time;durP1;ratioP1;P1;durP2;ratioP2;P2;SDS_P1;SDS_P2;PMS_P1;PMS_P2;Temp;Humidity;BMP_temperature;BMP_pressure;BME280_temperature;BME280_humidity;BME280_pressure;Samples;Min_cycle;Max_cycle;Signal;HPM_P1;HPM_P2
2024/01/03 00:00:52;;;;;;;;;2.25;2.25;;;;;16.28;100.00;99227.44;2101721;28;46279;-62
2024/01/03 00:01:58;;;;;;;;;2.00;2.00;;;;;16.31;100.00;99223.69;2103602;28;46854;-62
2024/01/03 00:02:58;;;;;;;;;2.25;1.75;;;;;16.30;100.00;99235.38;2101744;28;46354;-61
2024/01/03 00:03:59;;;;;;;;;3.67;3.67;;;;;16.30;100.00;99220.16;2097070;28;46332;-61
2024/01/03 00:05:00;;;;;;;;;1.00;1.00;;;;;16.26;100.00;99224.03;2104050;28;46478;-62
2024/01/03 00:06:00;;;;;;;;;5.00;3.67;;;;;16.26;100.00;99213.31;2100905;28;46305;-61
2024/01/03 00:07:01;;;;;;;;;3.00;1.00;;;;;16.26;100.00;99207.97;2086879;28;46959;-61
2024/01/03 00:08:01;;;;;;;;;5.33;2.33;;;;;16.24;100.00;99217.88;2086513;28;46231;-62
2024/01/03 00:09:02;;;;;;;;;3.67;2.67;;;;;16.23;100.00;99216.19;2100287;28;46637;-60
2024/01/03 00:10:16;;;;;;;;;2.50;1.50;;;;;16.24;100.00;99201.81;2096981;28;46357;-61
2024/01/03 00:11:20;;;;;;;;;3.00;3.00;;;;;16.25;100.00;99203.53;2102705;28;46673;-61
2024/01/03 00:12:25;;;;;;;;;2.00;2.00;;;;;16.24;100.00;99207.19;2100179;28;46486;-62
2024/01/03 00:13:34;;;;;;;;;3.50;2.50;;;;;16.27;100.00;99203.47;2102334;28;45857;-59
2024/01/03 00:14:34;;;;;;;;;2.00;2.00;;;;;16.23;100.00;99194.75;2102856;28;46776;-62
2024/01/03 00:15:35;;;;;;;;;2.67;2.00;;;;;16.21;100.00;99196.69;2099187;28;46285;-62
2024/01/03 00:16:38;;;;;;;;;1.00;1.00;;;;;16.21;100.00;99199.38;2097041;28;46716;-62
2024/01/03 00:17:43;;;;;;;;;4.25;2.75;;;;;16.20;100.00;99205.69;2103148;28;45044;-62
2024/01/03 00:18:49;;;;;;;;;4.50;2.50;;;;;16.21;100.00;99204.72;2101435;28;46940;-62
2024/01/03 00:19:54;;;;;;;;;2.50;2.00;;;;;16.19;100.00;99198.63;2095247;28;46403;-60
2024/01/03 00:20:58;;;;;;;;;4.75;3.00;;;;;16.19;100.00;99198.63;2097563;28;47044;-61
2024/01/03 00:21:58;;;;;;;;;1.50;1.50;;;;;16.19;100.00;99193.28;2096717;28;46591;-60
2024/01/03 00:22:59;;;;;;;;;3.67;2.33;;;;;16.19;100.00;99202.16;2102985;28;46913;-61
2024/01/03 00:24:09;;;;;;;;;4.75;2.75;;;;;16.22;100.00;99210.94;2099981;28;46760;-61
2024/01/03 00:25:10;;;;;;;;;1.25;1.25;;;;;16.22;100.00;99213.59;2097690;28;46591;-61
2024/01/03 00:26:12;;;;;;;;;4.00;3.00;;;;;16.22;100.00;99213.59;2103381;28;46510;-62
2024/01/03 00:27:13;;;;;;;;;2.75;2.00;;;;;16.22;100.00;99210.94;2099812;28;47147;-61
2024/01/03 00:28:13;;;;;;;;;3.33;2.67;;;;;16.23;100.00;99201.94;2099794;28;46513;-61
2024/01/03 00:29:23;;;;;;;;;2.67;2.67;;;;;16.26;100.00;99213.31;2105960;27;46171;-62
2024/01/03 00:30:23;;;;;;;;;1.75;0.00;;;;;16.35;100.00;99217.16;2108445;27;47058;-61
2024/01/03 00:31:43;;;;;;;;;3.33;3.00;;;;;16.33;100.00;99216.41;2113340;27;45982;-61
2024/01/03 00:32:43;;;;;;;;;3.25;2.00;;;;;16.38;100.00;99230.31;2097880;28;47133;-61
2024/01/03 00:33:44;;;;;;;;;3.00;3.00;;;;;16.41;100.00;99216.75;2096055;28;46528;-61
2024/01/03 00:34:44;;;;;;;;;3.33;2.00;;;;;16.39;100.00;99224.03;2096774;28;46730;-61
2024/01/03 00:35:45;;;;;;;;;4.00;4.00;;;;;16.39;100.00;99224.88;2097553;28;46242;-61
2024/01/03 00:36:50;;;;;;;;;3.33;3.00;;;;;16.39;100.00;99216.84;2107165;27;46950;-62
2024/01/03 00:37:50;;;;;;;;;3.50;2.00;;;;;16.33;100.00;99216.41;2111222;27;46483;-61
2024/01/03 00:38:51;;;;;;;;;3.00;3.00;;;;;16.25;100.00;99216.94;2106240;27;46202;-61
2024/01/03 00:39:52;;;;;;;;;4.00;4.00;;;;;16.22;100.00;99218.97;2106543;27;46213;-61
2024/01/03 00:40:57;;;;;;;;;3.25;1.50;;;;;16.19;100.00;99212.88;2105954;27;45879;-61
2024/01/03 00:41:57;;;;;;;;;4.00;2.75;;;;;16.21;100.00;99212.75;2106029;27;46433;-61
2024/01/03 00:42:58;;;;;;;;;3.00;2.00;;;;;16.21;100.00;99217.25;2095702;28;46808;-60
2024/01/03 00:43:58;;;;;;;;;2.00;2.00;;;;;16.19;100.00;99218.22;2088546;28;46622;-62
2024/01/03 00:44:58;;;;;;;;;5.33;3.67;;;;;16.18;100.00;99216.50;2088438;28;46636;-62
2024/01/03 00:45:59;;;;;;;;;2.67;2.67;;;;;16.18;100.00;99204.94;2096682;28;47371;-61
2024/01/03 00:47:00;;;;;;;;;1.67;1.33;;;;;16.17;100.00;99209.44;2113382;27;46411;-60
2024/01/03 00:48:00;;;;;;;;;3.00;3.00;;;;;16.19;100.00;99217.34;2111896;27;46878;-59
2024/01/03 00:49:00;;;;;;;;;4.33;3.67;;;;;16.22;100.00;99206.44;2103216;27;46596;-61
2024/01/03 00:50:01;;;;;;;;;1.00;1.00;;;;;16.23;100.00;99215.31;2106401;27;46605;-62
2024/01/03 00:51:02;;;;;;;;;4.67;3.00;;;;;16.18;100.00;99212.97;2106309;27;46535;-62
2024/01/03 00:52:04;;;;;;;;;3.75;2.00;;;;;16.17;100.00;99197.88;2100664;28;46456;-60
2024/01/03 00:53:04;;;;;;;;;2.75;2.00;;;;;16.14;100.00;99201.63;2106602;27;46588;-63
2024/01/03 00:54:04;;;;;;;;;4.00;3.00;;;;;16.14;100.00;99214.16;2106492;28;46838;-62
2024/01/03 00:55:06;;;;;;;;;4.33;2.00;;;;;16.13;100.00;99209.72;2106361;27;47050;-63
2024/01/03 00:56:07;;;;;;;;;2.00;1.75;;;;;16.13;100.00;99209.72;2106048;27;45749;-61
2024/01/03 00:57:07;;;;;;;;;1.00;1.00;;;;;16.11;100.00;99196.47;2105987;28;46763;-62
2024/01/03 00:58:09;;;;;;;;;2.67;1.00;;;;;16.13;100.00;99205.28;2105949;27;46712;-62
2024/01/03 00:59:10;;;;;;;;;7.25;2.50;;;;;16.18;100.00;99208.47;2104815;27;46977;-60
2024/01/03 01:00:12;;;;;;;;;2.00;2.00;;;;;16.21;100.00;99198.50;2105647;28;46820;-61
2024/01/03 01:01:12;;;;;;;;;1.25;1.25;;;;;16.20;100.00;99197.66;2105559;27;45711;-59
2024/01/03 01:02:12;;;;;;;;;2.00;2.00;;;;;16.20;100.00;99203.00;2106285;28;46349;-63
2024/01/03 01:03:13;;;;;;;;;4.33;2.67;;;;;16.21;100.00;99203.88;2106173;27;46224;-61
2024/01/03 01:04:15;;;;;;;;;6.00;3.00;;;;;16.21;100.00;99206.53;2105615;27;47224;-61
2024/01/03 01:05:15;;;;;;;;;3.00;3.00;;;;;16.21;100.00;99196.69;2103395;27;46470;-61
2024/01/03 01:06:16;;;;;;;;;2.67;2.00;;;;;16.19;100.00;99212.00;2088154;28;46214;-59
2024/01/03 01:07:16;;;;;;;;;4.00;4.00;;;;;16.19;100.00;99207.50;2088184;28;46672;-61
2024/01/03 01:08:16;;;;;;;;;3.33;2.00;;;;;16.19;100.00;99203.97;2105569;28;46499;-61
2024/01/03 01:09:17;;;;;;;;;1.33;1.33;;;;;16.22;100.00;99198.41;2106978;27;46170;-62
2024/01/03 01:10:17;;;;;;;;;5.00;3.00;;;;;16.23;100.00;99205.47;2105664;28;47061;-62
2024/01/03 01:11:17;;;;;;;;;3.00;2.00;;;;;16.22;100.00;99203.75;2107909;27;45470;-60
2024/01/03 01:12:18;;;;;;;;;2.00;2.00;;;;;16.24;100.00;99206.31;2107390;27;45817;-62
2024/01/03 01:13:18;;;;;;;;;3.00;3.00;;;;;16.22;100.00;99195.72;2114165;27;46476;-62
2024/01/03 01:14:19;;;;;;;;;3.00;1.00;;;;;16.22;100.00;99189.53;2110454;27;45331;-61
2024/01/03 01:15:19;;;;;;;;;4.00;2.00;;;;;16.22;100.00;99197.53;2105696;28;46277;-59
2024/01/03 01:16:19;;;;;;;;;5.00;3.00;;;;;16.22;100.00;99198.41;2104859;28;46889;-60
2024/01/03 01:17:20;;;;;;;;;4.00;3.00;;;;;16.21;100.00;99196.69;2107958;27;46653;-61
2024/01/03 01:18:20;;;;;;;;;4.00;3.00;;;;;16.24;100.00;99200.97;2105641;28;46264;-62
2024/01/03 01:19:20;;;;;;;;;4.00;2.00;;;;;16.26;100.00;99188.34;2108254;27;46102;-61
2024/01/03 01:20:21;;;;;;;;;3.67;1.33;;;;;16.24;100.00;99192.94;2107298;27;46549;-60
2024/01/03 01:21:21;;;;;;;;;2.00;1.67;;;;;16.23;100.00;99197.44;2106938;27;46853;-60
2024/01/03 01:22:23;;;;;;;;;4.00;2.67;;;;;16.22;100.00;99190.38;2107637;27;46325;-59
2024/01/03 01:23:24;;;;;;;;;2.25;2.25;;;;;16.24;100.00;99182.25;2106163;27;46662;-61
2024/01/03 01:24:24;;;;;;;;;5.33;3.00;;;;;16.24;100.00;99190.25;2089669;28;46561;-61
2024/01/03 01:25:24;;;;;;;;;2.00;2.00;;;;;16.24;100.00;99188.44;2090785;28;46638;-60
2024/01/03 01:26:24;;;;;;;;;3.33;2.00;;;;;16.24;100.00;99174.22;2105735;28;46468;-60
2024/01/03 01:27:25;;;;;;;;;2.00;2.00;;;;;16.21;100.00;99190.47;2108457;27;46743;-59
2024/01/03 01:28:25;;;;;;;;;2.33;1.00;;;;;16.26;100.00;99183.88;2107136;27;46211;-59
2024/01/03 01:29:25;;;;;;;;;3.33;3.00;;;;;16.27;100.00;99184.72;2105687;27;46935;-61
2024/01/03 01:30:26;;;;;;;;;1.00;1.00;;;;;16.27;100.00;99188.25;2108385;27;46418;-62
2024/01/03 01:31:26;;;;;;;;;2.00;1.33;;;;;16.29;100.00;99175.63;2106131;28;46219;-61
2024/01/03 01:32:26;;;;;;;;;2.33;2.00;;;;;16.29;100.00;99183.66;2108575;27;46268;-61
2024/01/03 01:33:27;;;;;;;;;2.67;1.67;;;;;16.28;100.00;99191.78;2105440;27;46179;-59
2024/01/03 01:34:27;;;;;;;;;2.33;2.33;;;;;16.29;100.00;99188.16;2106021;28;46478;-62
2024/01/03 01:35:27;;;;;;;;;7.00;2.67;;;;;16.24;100.00;99184.91;2109337;27;46330;-60
2024/01/03 01:36:28;;;;;;;;;2.00;2.00;;;;;16.21;100.00;99183.31;2106396;27;47538;-60
2024/01/03 01:37:28;;;;;;;;;3.33;3.33;;;;;16.22;100.00;99177.00;2108693;27;46403;-60
2024/01/03 01:38:28;;;;;;;;;1.00;1.00;;;;;16.27;100.00;99201.63;2105345;27;46741;-60
2024/01/03 01:39:28;;;;;;;;;2.00;1.00;;;;;16.27;100.00;99182.91;2105764;28;46238;-61
2024/01/03 01:40:29;;;;;;;;;4.00;3.00;;;;;16.27;100.00;99185.56;2109110;27;46884;-60
2024/01/03 01:41:30;;;;;;;;;1.67;1.00;;;;;16.27;100.00;99190.94;2107539;27;46809;-62
2024/01/03 01:42:31;;;;;;;;;3.00;2.67;;;;;16.27;100.00;99187.41;2096938;28;47668;-60
2024/01/03 01:43:32;;;;;;;;;3.25;2.50;;;;;16.28;100.00;99205.16;2100991;28;45137;-59
2024/01/03 01:44:32;;;;;;;;;4.33;3.00;;;;;16.29;100.00;99198.84;2106305;27;46477;-61
2024/01/03 01:45:32;;;;;;;;;3.33;2.00;;;;;16.28;100.00;99197.13;2108603;27;46690;-61
2024/01/03 01:46:34;;;;;;;;;4.33;3.00;;;;;16.28;100.00;99187.28;2109352;27;47298;-61
2024/01/03 01:47:35;;;;;;;;;2.00;2.00;;;;;16.26;100.00;99188.34;2108144;27;46976;-59
2024/01/03 01:48:36;;;;;;;;;4.00;3.00;;;;;16.25;100.00;99203.53;2110350;27;45590;-59
2024/01/03 01:49:39;;;;;;;;;4.00;2.50;;;;;16.24;100.00;99207.19;2107483;27;46475;-59
2024/01/03 01:50:40;;;;;;;;;2.50;1.25;;;;;16.23;100.00;99200.13;2106668;27;46637;-60
2024/01/03 01:51:40;;;;;;;;;3.00;3.00;;;;;16.23;100.00;99193.91;2105458;27;46408;-59
2024/01/03 01:52:41;;;;;;;;;2.67;2.67;;;;;16.22;100.00;99195.72;2106661;27;45960;-58
2024/01/03 01:53:42;;;;;;;;;2.00;2.00;;;;;16.23;100.00;99191.22;2108364;27;47132;-61
2024/01/03 01:54:43;;;;;;;;;2.25;1.50;;;;;16.24;100.00;99199.16;2109189;27;46606;-60
2024/01/03 01:55:44;;;;;;;;;2.33;2.33;;;;;16.22;100.00;99203.75;2105891;28;46635;-60
2024/01/03 01:56:44;;;;;;;;;3.67;2.33;;;;;16.22;100.00;99200.22;2109488;27;46474;-59
2024/01/03 01:57:45;;;;;;;;;2.33;2.00;;;;;16.23;100.00;99201.94;2089820;28;46294;-59
2024/01/03 01:58:48;;;;;;;;;3.00;1.00;;;;;16.25;100.00;99195.50;2088535;28;46375;-60
2024/01/03 01:59:48;;;;;;;;;4.75;3.50;;;;;16.26;100.00;99196.38;2109584;27;45948;-61
2024/01/03 02:00:48;;;;;;;;;2.00;2.00;;;;;16.24;100.00;99200.97;2106627;27;46756;-60
2024/01/03 02:01:49;;;;;;;;;3.00;2.00;;;;;16.26;100.00;99205.28;2090014;28;46312;-60
2024/01/03 02:02:50;;;;;;;;;3.67;2.00;;;;;16.22;100.00;99193.06;2089017;28;46204;-60
2024/01/03 02:03:52;;;;;;;;;2.00;1.25;;;;;16.28;100.00;99198.00;2105516;27;46974;-63
2024/01/03 02:04:53;;;;;;;;;4.75;3.00;;;;;16.27;100.00;99201.63;2105421;28;46305;-60
2024/01/03 02:05:53;;;;;;;;;4.00;2.50;;;;;16.28;100.00;99197.13;2104013;27;47242;-61
2024/01/03 02:06:54;;;;;;;;;4.33;3.00;;;;;16.28;100.00;99199.81;2104006;28;46605;-62
2024/01/03 02:07:56;;;;;;;;;3.00;1.00;;;;;16.28;100.00;99195.31;2104161;27;45748;-61
2024/01/03 02:08:57;;;;;;;;;2.25;2.00;;;;;16.27;100.00;99200.78;2107216;27;46757;-60
2024/01/03 02:09:57;;;;;;;;;3.00;1.67;;;;;16.29;100.00;99188.16;2107748;27;46742;-60
2024/01/03 02:10:57;;;;;;;;;4.33;3.00;;;;;16.29;100.00;99199.72;2110014;27;46692;-59
2024/01/03 02:11:57;;;;;;;;;4.67;2.00;;;;;16.31;100.00;99192.44;2106716;27;46452;-59
2024/01/03 02:12:58;;;;;;;;;3.00;2.67;;;;;16.29;100.00;99183.66;2091804;28;46479;-60
2024/01/03 02:13:58;;;;;;;;;3.00;3.00;;;;;16.29;100.00;99188.16;2089989;28;46679;-60
2024/01/03 02:14:58;;;;;;;;;3.33;2.33;;;;;16.29;100.00;99183.66;2106930;27;46337;-59
2024/01/03 02:15:59;;;;;;;;;3.67;2.00;;;;;16.30;100.00;99181.81;2109984;27;46772;-59
2024/01/03 02:16:59;;;;;;;;;3.00;3.00;;;;;16.30;100.00;99187.19;2106268;27;45932;-58
2024/01/03 02:18:01;;;;;;;;;3.33;3.00;;;;;16.31;100.00;99183.53;2091014;28;46414;-58
2024/01/03 02:19:04;;;;;;;;;6.00;2.50;;;;;16.32;100.00;99191.47;2091998;28;46928;-59
2024/01/03 02:20:05;;;;;;;;;3.00;2.00;;;;;16.33;100.00;99178.94;2106695;27;45943;-58
2024/01/03 02:21:16;;;;;;;;;2.33;1.00;;;;;16.34;100.00;99181.50;2099085;28;46137;-59
2024/01/03 02:22:16;;;;;;;;;4.50;2.50;;;;;16.33;100.00;99170.91;2109689;27;45952;-59
2024/01/03 02:23:16;;;;;;;;;2.00;2.00;;;;;16.33;100.00;99185.13;2105207;28;46771;-59
2024/01/03 02:24:17;;;;;;;;;3.67;2.00;;;;;16.34;100.00;99183.31;2092938;28;46382;-59
2024/01/03 02:25:18;;;;;;;;;1.00;1.00;;;;;16.33;100.00;99184.28;2090013;28;47145;-58
2024/01/03 02:26:18;;;;;;;;;3.67;3.00;;;;;16.34;100.00;99180.63;2090274;28;46749;-59
2024/01/03 02:27:18;;;;;;;;;4.33;2.67;;;;;16.32;100.00;99185.25;2092850;28;46381;-60
2024/01/03 02:28:19;;;;;;;;;1.67;1.67;;;;;16.35;100.00;99180.53;2079920;28;45494;-60
2024/01/03 02:29:19;;;;;;;;;4.67;3.67;;;;;16.28;100.00;99179.25;2083660;28;46859;-60
2024/01/03 02:30:19;;;;;;;;;5.00;3.67;;;;;16.32;100.00;99180.75;2091735;28;46448;-60
2024/01/03 02:31:20;;;;;;;;;1.67;1.00;;;;;16.33;100.00;99186.97;2089079;28;46536;-60
2024/01/03 02:32:20;;;;;;;;;4.33;2.00;;;;;16.34;100.00;99180.63;2092800;28;45272;-60
2024/01/03 02:33:20;;;;;;;;;3.67;2.33;;;;;16.34;100.00;99176.13;2089443;28;46965;-58
2024/01/03 02:34:21;;;;;;;;;3.00;3.00;;;;;16.35;100.00;99188.56;2083431;28;46663;-61
2024/01/03 02:35:21;;;;;;;;;5.00;3.00;;;;;16.36;100.00;99187.59;2084170;28;46680;-60
2024/01/03 02:36:21;;;;;;;;;4.67;3.00;;;;;16.36;100.00;99179.56;2088337;28;46808;-60
2024/01/03 02:37:23;;;;;;;;;4.33;2.67;;;;;16.36;100.00;99184.06;2087276;28;46389;-60
2024/01/03 02:38:23;;;;;;;;;3.75;2.00;;;;;16.35;100.00;99191.22;2086371;28;45799;-60
2024/01/03 02:39:24;;;;;;;;;3.00;2.00;;;;;16.36;100.00;99184.06;2087393;28;46479;-60
2024/01/03 02:40:24;;;;;;;;;3.67;3.00;;;;;16.33;100.00;99182.47;2091208;28;46777;-58
2024/01/03 02:41:25;;;;;;;;;3.67;2.00;;;;;16.32;100.00;99194.13;2089384;28;46817;-60
2024/01/03 02:42:25;;;;;;;;;3.00;3.00;;;;;16.32;100.00;99187.94;2090075;28;46644;-59
2024/01/03 02:43:25;;;;;;;;;6.00;2.00;;;;;16.30;100.00;99182.69;2091948;28;46487;-59
2024/01/03 02:44:27;;;;;;;;;1.00;1.00;;;;;16.29;100.00;99193.50;2087561;28;45324;-60
2024/01/03 02:45:27;;;;;;;;;0.75;0.00;;;;;16.26;100.00;99188.34;2079128;28;46684;-60
2024/01/03 02:46:28;;;;;;;;;4.00;1.00;;;;;16.23;100.00;99178.69;2078768;28;46315;-60
2024/01/03 02:47:28;;;;;;;;;4.00;3.00;;;;;16.24;100.00;99187.59;2087318;28;46332;-60
2024/01/03 02:48:28;;;;;;;;;6.00;3.33;;;;;16.26;100.00;99178.50;2086623;28;46150;-62
2024/01/03 02:49:29;;;;;;;;;8.33;3.00;;;;;16.25;100.00;99184.81;2088539;28;46676;-60
2024/01/03 02:50:29;;;;;;;;;4.00;3.67;;;;;16.25;100.00;99184.81;2087264;28;46696;-61
2024/01/03 02:51:30;;;;;;;;;4.00;2.00;;;;;16.23;100.00;99184.06;2092336;28;45277;-58
2024/01/03 02:52:30;;;;;;;;;3.00;3.00;;;;;16.18;100.00;99187.06;2088183;28;45886;-60
2024/01/03 02:53:31;;;;;;;;;3.33;3.33;;;;;16.21;100.00;99183.31;2089801;28;46436;-62
2024/01/03 02:54:31;;;;;;;;;5.33;3.00;;;;;16.21;100.00;99182.44;2082011;28;46480;-60
2024/01/03 02:55:32;;;;;;;;;4.00;2.67;;;;;16.19;100.00;99183.41;2087990;28;47008;-59
2024/01/03 02:56:40;;;;;;;;;2.00;2.00;;;;;16.24;100.00;99179.56;2109293;27;46737;-60
2024/01/03 02:57:41;;;;;;;;;2.00;2.00;;;;;16.18;100.00;99180.84;2107237;27;46629;-60
2024/01/03 02:58:41;;;;;;;;;5.00;3.67;;;;;16.24;100.00;99182.25;2107213;27;46241;-60
2024/01/03 02:59:42;;;;;;;;;3.00;3.00;;;;;16.23;100.00;99181.38;2109647;27;46285;-60
2024/01/03 03:00:42;;;;;;;;;4.33;3.67;;;;;16.22;100.00;99182.34;2105166;27;46448;-59
2024/01/03 03:01:43;;;;;;;;;4.33;2.00;;;;;16.23;100.00;99176.03;2108831;27;46158;-62
2024/01/03 03:02:43;;;;;;;;;1.50;1.00;;;;;16.23;100.00;99167.13;2109001;27;46637;-61
2024/01/03 03:03:44;;;;;;;;;1.33;1.33;;;;;16.23;100.00;99180.53;2105690;27;45143;-60
2024/01/03 03:04:44;;;;;;;;;4.00;2.00;;;;;16.22;100.00;99173.47;2110081;27;46495;-59
2024/01/03 03:05:44;;;;;;;;;3.67;3.00;;;;;16.23;100.00;99180.53;2103758;27;46585;-59
2024/01/03 03:06:45;;;;;;;;;5.67;3.33;;;;;16.24;100.00;99169.72;2107326;27;47014;-60
2024/01/03 03:07:45;;;;;;;;;4.67;2.67;;;;;16.24;100.00;99166.19;2108748;27;46647;-58
2024/01/03 03:08:46;;;;;;;;;4.00;2.67;;;;;16.24;100.00;99168.84;2105108;28;45491;-60
2024/01/03 03:09:46;;;;;;;;;4.67;1.00;;;;;16.24;100.00;99177.75;2107654;27;46260;-61
2024/01/03 03:10:46;;;;;;;;;3.00;1.33;;;;;16.25;100.00;99159.84;2104978;27;46789;-59
2024/01/03 03:11:47;;;;;;;;;4.33;3.00;;;;;16.22;100.00;99157.41;2105410;28;46313;-59
2024/01/03 03:12:47;;;;;;;;;3.00;3.00;;;;;16.23;100.00;99168.00;2109251;27;46346;-60
2024/01/03 03:13:47;;;;;;;;;2.67;1.67;;;;;16.23;100.00;99170.69;2104988;27;46452;-60
2024/01/03 03:14:49;;;;;;;;;3.67;2.00;;;;;16.25;100.00;99167.88;2111093;27;45173;-59
2024/01/03 03:15:49;;;;;;;;;2.25;2.00;;;;;16.24;100.00;99169.72;2110548;27;46214;-60
2024/01/03 03:16:49;;;;;;;;;3.67;2.00;;;;;16.26;100.00;99156.22;2105222;28;46188;-58
2024/01/03 03:17:50;;;;;;;;;1.67;1.67;;;;;16.26;100.00;99159.78;2105396;27;46462;-60
2024/01/03 03:18:50;;;;;;;;;2.00;2.00;;;;;16.26;100.00;99157.09;2096524;28;46085;-59
2024/01/03 03:19:50;;;;;;;;;3.00;2.00;;;;;16.24;100.00;99163.50;2096558;28;46307;-59
2024/01/03 03:20:51;;;;;;;;;3.00;3.00;;;;;16.27;100.00;99163.31;2104429;27;46499;-62
2024/01/03 03:21:51;;;;;;;;;1.33;1.33;;;;;16.26;100.00;99169.59;2106609;27;46184;-60
2024/01/03 03:22:51;;;;;;;;;2.67;2.33;;;;;16.26;100.00;99166.91;2105074;27;46698;-62
2024/01/03 03:23:51;;;;;;;;;1.00;1.00;;;;;16.24;100.00;99159.00;2105606;27;45804;-60
2024/01/03 03:24:52;;;;;;;;;2.33;2.33;;;;;16.24;100.00;99150.97;2104923;28;46529;-59
2024/01/03 03:25:52;;;;;;;;;3.00;2.00;;;;;16.24;100.00;99164.34;2106846;27;45885;-60
2024/01/03 03:26:53;;;;;;;;;2.00;2.00;;;;;16.24;100.00;99159.00;2097082;28;45275;-59
2024/01/03 03:27:53;;;;;;;;;4.50;3.25;;;;;16.24;100.00;99168.84;2095636;28;46665;-59
2024/01/03 03:28:54;;;;;;;;;2.33;2.33;;;;;16.25;100.00;99167.88;2107252;27;46926;-62
2024/01/03 03:29:54;;;;;;;;;2.33;2.00;;;;;16.24;100.00;99160.81;2105928;27;46365;-60
2024/01/03 03:30:55;;;;;;;;;5.33;3.33;;;;;16.23;100.00;99157.28;2107743;27;46544;-60
2024/01/03 03:31:55;;;;;;;;;2.00;2.00;;;;;16.21;100.00;99159.22;2108339;27;46318;-61
2024/01/03 03:32:55;;;;;;;;;2.67;2.00;;;;;16.22;100.00;99165.44;2105037;28;46619;-59
2024/01/03 03:33:55;;;;;;;;;2.00;2.00;;;;;16.22;100.00;99165.44;2108211;27;46586;-61
2024/01/03 03:34:56;;;;;;;;;2.00;2.00;;;;;16.21;100.00;99155.69;2106911;27;46824;-59
2024/01/03 03:35:56;;;;;;;;;3.33;2.00;;;;;16.21;100.00;99158.38;2105566;27;46308;-60
2024/01/03 03:36:56;;;;;;;;;5.33;2.33;;;;;16.21;100.00;99155.69;2107109;27;46398;-61
2024/01/03 03:37:57;;;;;;;;;5.33;3.33;;;;;16.21;100.00;99163.72;2086857;28;46711;-60
2024/01/03 03:38:57;;;;;;;;;3.67;2.00;;;;;16.19;100.00;99158.47;2087485;28;46604;-60
2024/01/03 03:39:58;;;;;;;;;5.33;2.00;;;;;16.17;100.00;99158.59;2102063;27;46520;-61
2024/01/03 03:40:58;;;;;;;;;1.67;1.67;;;;;16.16;100.00;99145.31;2104680;28;45552;-59
2024/01/03 03:41:59;;;;;;;;;4.33;2.33;;;;;16.16;100.00;99146.16;2111298;27;46986;-61
2024/01/03 03:43:00;;;;;;;;;2.00;1.00;;;;;16.12;100.00;99144.66;2105304;27;46596;-61
2024/01/03 03:44:00;;;;;;;;;2.33;2.33;;;;;16.14;100.00;99149.91;2105736;27;46305;-60
2024/01/03 03:45:00;;;;;;;;;1.33;1.33;;;;;16.14;100.00;99144.56;2095557;28;46268;-61
2024/01/03 03:46:00;;;;;;;;;1.33;1.33;;;;;16.15;100.00;99154.31;2095889;28;47066;-62
2024/01/03 03:47:01;;;;;;;;;3.00;2.00;;;;;16.14;100.00;99147.25;2106947;27;46589;-60
2024/01/03 03:48:01;;;;;;;;;3.00;1.00;;;;;16.14;100.00;99148.09;2106950;27;46889;-61
2024/01/03 03:49:02;;;;;;;;;1.67;1.67;;;;;16.14;100.00;99149.91;2093188;28;46094;-60
2024/01/03 03:50:03;;;;;;;;;3.67;1.00;;;;;16.14;100.00;99145.44;2097546;28;46388;-60
2024/01/03 03:51:04;;;;;;;;;2.75;1.00;;;;;16.14;100.00;99136.53;2105405;27;46922;-60
2024/01/03 03:52:04;;;;;;;;;2.00;1.75;;;;;16.13;100.00;99142.81;2105974;27;45499;-59
2024/01/03 03:53:10;;;;;;;;;2.67;1.67;;;;;16.12;100.00;99136.63;2095148;28;46552;-61
2024/01/03 03:54:10;;;;;;;;;2.00;0.75;;;;;16.13;100.00;99145.50;2087676;28;46576;-59
2024/01/03 03:55:13;;;;;;;;;2.00;2.00;;;;;16.12;100.00;99139.28;2089821;28;46327;-60
2024/01/03 03:56:23;;;;;;;;;1.25;1.00;;;;;16.14;100.00;99141.91;2089707;28;46697;-57
2024/01/03 03:57:24;;;;;;;;;3.25;1.75;;;;;16.12;100.00;99131.28;2086667;28;46657;-60
2024/01/03 03:58:24;;;;;;;;;2.00;1.00;;;;;16.14;100.00;99140.06;2086374;28;46720;-61
2024/01/03 03:59:24;;;;;;;;;2.00;1.00;;;;;16.14;100.00;99136.53;2088268;28;46671;-60
2024/01/03 04:00:24;;;;;;;;;1.00;1.00;;;;;16.13;100.00;99137.47;2088187;28;47051;-60
2024/01/03 04:01:26;;;;;;;;;3.00;0.67;;;;;16.11;100.00;99136.72;2089429;28;46226;-59
2024/01/03 04:02:26;;;;;;;;;0.00;0.00;;;;;16.11;100.00;99137.59;2088194;28;46217;-59
2024/01/03 04:03:26;;;;;;;;;1.00;1.00;;;;;16.11;100.00;99142.09;2087973;28;46195;-60
2024/01/03 04:04:27;;;;;;;;;0.67;0.00;;;;;16.11;100.00;99132.22;2089726;28;46708;-60
2024/01/03 04:05:27;;;;;;;;;0.00;0.00;;;;;16.11;100.00;99136.72;2089405;28;46039;-60
2024/01/03 04:06:27;;;;;;;;;0.33;0.00;;;;;16.11;100.00;99148.28;2090896;28;46243;-59
2024/01/03 04:07:31;;;;;;;;;0.00;0.00;;;;;16.10;100.00;99143.91;2091320;28;46516;-60
2024/01/03 04:08:31;;;;;;;;;0.00;0.00;;;;;16.11;100.00;99142.94;2090115;28;46658;-59
2024/01/03 04:09:31;;;;;;;;;1.00;1.00;;;;;16.12;100.00;99146.47;2090424;28;46503;-60
2024/01/03 04:10:32;;;;;;;;;1.00;0.00;;;;;16.13;100.00;99140.16;2090564;28;46648;-60
2024/01/03 04:11:32;;;;;;;;;0.67;0.00;;;;;16.12;100.00;99133.94;2089540;28;46629;-60
2024/01/03 04:12:36;;;;;;;;;1.00;0.00;;;;;16.14;100.00;99136.53;2090311;28;46296;-59
2024/01/03 04:13:40;;;;;;;;;0.00;0.00;;;;;16.16;100.00;99142.63;2089842;28;46332;-59
2024/01/03 04:14:41;;;;;;;;;0.75;0.00;;;;;16.16;100.00;99143.50;2096595;28;46608;-59
2024/01/03 04:15:41;;;;;;;;;0.00;0.00;;;;;16.18;100.00;99146.06;2092043;28;46273;-60
2024/01/03 04:16:41;;;;;;;;;1.00;1.00;;;;;16.18;100.00;99146.91;2089492;28;46172;-59
2024/01/03 04:17:42;;;;;;;;;0.00;0.00;;;;;16.21;100.00;99153.00;2090339;28;46311;-58
2024/01/03 04:18:42;;;;;;;;;1.00;0.00;;;;;16.19;100.00;99145.94;2089977;28;46780;-59
2024/01/03 04:19:42;;;;;;;;;0.00;0.00;;;;;16.21;100.00;99161.91;2097475;28;46555;-60
2024/01/03 04:20:42;;;;;;;;;0.00;0.00;;;;;16.22;100.00;99154.72;2092462;28;46815;-59
2024/01/03 04:21:43;;;;;;;;;0.00;0.00;;;;;16.22;100.00;99154.72;2087916;28;46348;-61
2024/01/03 04:22:45;;;;;;;;;0.00;0.00;;;;;16.26;100.00;99164.25;2089831;28;46063;-59
2024/01/03 04:23:45;;;;;;;;;0.00;0.00;;;;;16.24;100.00;99169.72;2089199;28;46536;-60
2024/01/03 04:24:45;;;;;;;;;0.00;0.00;;;;;16.26;100.00;99157.09;2089006;28;46304;-59
2024/01/03 04:25:46;;;;;;;;;0.00;0.00;;;;;16.27;100.00;99155.28;2089649;28;46295;-60
2024/01/03 04:26:46;;;;;;;;;1.00;0.00;;;;;16.30;100.00;99157.72;2090107;28;46890;-59
2024/01/03 04:27:46;;;;;;;;;0.00;0.00;;;;;16.30;100.00;99153.22;2097916;28;46132;-60
2024/01/03 04:28:46;;;;;;;;;0.00;0.00;;;;;16.30;100.00;99155.91;2091624;28;46315;-60
2024/01/03 04:29:47;;;;;;;;;1.00;0.00;;;;;16.31;100.00;99154.09;2079555;28;45731;-61
2024/01/03 04:30:47;;;;;;;;;0.00;0.00;;;;;16.32;100.00;99150.44;2086187;28;46684;-60
2024/01/03 04:31:48;;;;;;;;;0.00;0.00;;;;;16.31;100.00;99159.44;2088607;28;46109;-60
2024/01/03 04:32:48;;;;;;;;;0.00;0.00;;;;;16.30;100.00;99155.91;2089822;28;45087;-59
2024/01/03 04:33:49;;;;;;;;;1.00;0.00;;;;;16.31;100.00;99162.13;2089621;28;46848;-60
2024/01/03 04:34:49;;;;;;;;;0.00;0.00;;;;;16.31;100.00;99160.31;2088971;28;46201;-61
2024/01/03 04:35:49;;;;;;;;;0.00;0.00;;;;;16.32;100.00;99161.16;2089469;28;46826;-60
2024/01/03 04:36:50;;;;;;;;;1.67;0.00;;;;;16.31;100.00;99154.94;2092609;28;46281;-61
2024/01/03 04:37:50;;;;;;;;;0.00;0.00;;;;;16.31;100.00;99157.63;2091544;28;46839;-59
2024/01/03 04:38:50;;;;;;;;;0.00;0.00;;;;;16.30;100.00;99163.94;2089553;28;46043;-61
2024/01/03 04:39:51;;;;;;;;;0.00;0.00;;;;;16.30;100.00;99153.22;2090738;28;46817;-61
2024/01/03 04:40:51;;;;;;;;;1.00;0.00;;;;;16.29;100.00;99156.88;2083475;28;46277;-59
2024/01/03 04:41:51;;;;;;;;;0.00;0.00;;;;;16.31;100.00;99162.13;2084708;28;46761;-59
2024/01/03 04:42:52;;;;;;;;;0.00;0.00;;;;;16.35;100.00;99163.59;2088273;28;46776;-59
2024/01/03 04:43:52;;;;;;;;;0.00;0.00;;;;;16.34;100.00;99176.13;2077473;28;46288;-59